Time;durP1;ratioP1;P1;durP2;ratioP2;P2;SDS_P1;SDS_P2;PMS_P1;PMS_P2;Temp;Humidity;BMP_temperature;BMP_pressure;BME280_temperature;BME280_humidity;BME280_pressure;Samples;Min_cycle;Max_cycle;Signal;HPM_P1;HPM_P2
2023/09/17 00:00:31;;;;;;;9.77;8.80;;;;;;;;;;5052542;28;20829;-77
2023/09/17 00:02:57;;;;;;;9.33;8.33;;;;;;;;;;5052226;28;20409;-77
2023/09/17 00:05:23;;;;;;;9.90;9.00;;;;;;;;;;5052557;28;20962;-76
2023/09/17 00:07:48;;;;;;;9.83;8.90;;;;;;;;;;5050948;28;20449;-77
2023/09/17 00:10:14;;;;;;;9.97;9.07;;;;;;;;;;5051882;28;20236;-76
2023/09/17 00:12:40;;;;;;;9.37;8.53;;;;;;;;;;5052296;28;20442;-76
2023/09/17 00:15:07;;;;;;;11.97;10.70;;;;;;;;;;5052131;28;20414;-77
2023/09/17 00:17:33;;;;;;;10.10;9.10;;;;;;;;;;5052168;28;20409;-78
2023/09/17 00:19:59;;;;;;;9.63;8.83;;;;;;;;;;5052350;28;20405;-78
2023/09/17 00:22:25;;;;;;;11.50;10.50;;;;;;;;;;5050708;28;20467;-77
2023/09/17 00:24:51;;;;;;;11.00;10.00;;;;;;;;;;5032166;28;20589;-78
2023/09/17 00:27:17;;;;;;;10.30;9.40;;;;;;;;;;5032518;28;20414;-78
2023/09/17 00:29:43;;;;;;;10.03;9.13;;;;;;;;;;5032183;28;20215;-79
2023/09/17 00:32:09;;;;;;;12.00;10.90;;;;;;;;;;5043645;28;20430;-81
2023/09/17 00:34:37;;;;;;;10.43;9.10;;;;;;;;;;5050221;28;20178;-78
2023/09/17 00:37:03;;;;;;;10.60;9.60;;;;;;;;;;5051787;28;20511;-81
2023/09/17 00:39:29;;;;;;;10.57;9.50;;;;;;;;;;5051802;28;20976;-79
2023/09/17 00:41:55;;;;;;;9.67;8.67;;;;;;;;;;5052149;28;20763;-79
2023/09/17 00:44:21;;;;;;;9.90;9.10;;;;;;;;;;5051811;28;20425;-77
2023/09/17 00:46:47;;;;;;;11.10;10.10;;;;;;;;;;5052197;28;20170;-78
2023/09/17 00:49:14;;;;;;;10.57;9.63;;;;;;;;;;5052062;28;20571;-78
2023/09/17 00:51:43;;;;;;;10.53;9.53;;;;;;;;;;5051998;28;20958;-79
2023/09/17 00:54:11;;;;;;;11.80;10.60;;;;;;;;;;5050259;28;20527;-83
2023/09/17 00:56:38;;;;;;;10.27;9.27;;;;;;;;;;5050936;28;20414;-79
2023/09/17 00:59:13;;;;;;;10.93;10.03;;;;;;;;;;5051982;28;20413;-82
2023/09/17 01:01:39;;;;;;;11.50;10.40;;;;;;;;;;5051883;28;20844;-79
2023/09/17 01:04:07;;;;;;;10.87;9.87;;;;;;;;;;5052456;28;20488;-80
2023/09/17 01:06:33;;;;;;;11.50;10.40;;;;;;;;;;5055610;28;20448;-77
2023/09/17 01:08:59;;;;;;;11.03;9.63;;;;;;;;;;5054680;28;20995;-83
2023/09/17 01:11:26;;;;;;;9.77;8.83;;;;;;;;;;5055860;28;20768;-78
2023/09/17 01:14:10;;;;;;;9.73;8.83;;;;;;;;;;5055625;28;20416;-78
2023/09/17 01:16:36;;;;;;;12.13;11.03;;;;;;;;;;5055782;28;20451;-78
2023/09/17 01:19:03;;;;;;;10.30;9.30;;;;;;;;;;5055446;28;20456;-78
2023/09/17 01:21:36;;;;;;;9.63;8.73;;;;;;;;;;5055530;28;20189;-83
2023/09/17 01:24:08;;;;;;;9.50;8.50;;;;;;;;;;5055358;28;20432;-79
2023/09/17 01:26:36;;;;;;;9.90;8.90;;;;;;;;;;5055657;28;20849;-78
2023/09/17 01:29:04;;;;;;;9.57;8.77;;;;;;;;;;5055385;28;20539;-86
2023/09/17 01:31:30;;;;;;;11.33;10.23;;;;;;;;;;5055145;28;20797;-79
2023/09/17 01:33:56;;;;;;;10.37;9.37;;;;;;;;;;5055500;28;20401;-77
2023/09/17 01:36:25;;;;;;;10.63;9.63;;;;;;;;;;5055404;28;20451;-78
2023/09/17 01:38:54;;;;;;;10.40;9.40;;;;;;;;;;5054482;28;20774;-80
2023/09/17 01:41:20;;;;;;;9.83;9.00;;;;;;;;;;5055151;28;20424;-77
2023/09/17 01:43:46;;;;;;;10.87;9.97;;;;;;;;;;5055689;28;20897;-77
2023/09/17 01:46:12;;;;;;;9.70;8.67;;;;;;;;;;5055014;28;20421;-80
2023/09/17 01:48:42;;;;;;;10.23;9.23;;;;;;;;;;5055621;28;20417;-76
2023/09/17 01:51:09;;;;;;;9.03;8.33;;;;;;;;;;5055808;28;20774;-76
2023/09/17 01:53:37;;;;;;;9.43;8.60;;;;;;;;;;5053852;28;20413;-77
2023/09/17 01:56:04;;;;;;;8.47;7.67;;;;;;;;;;5055495;28;20417;-76
2023/09/17 01:58:30;;;;;;;10.83;9.60;;;;;;;;;;5055469;28;20412;-78
2023/09/17 02:00:56;;;;;;;10.77;9.87;;;;;;;;;;5055395;28;20409;-77
2023/09/17 02:03:22;;;;;;;9.67;8.70;;;;;;;;;;5055272;28;20416;-76
2023/09/17 02:05:48;;;;;;;10.73;9.63;;;;;;;;;;5055182;28;20430;-76
2023/09/17 02:08:14;;;;;;;10.13;9.23;;;;;;;;;;5054920;28;20473;-77
2023/09/17 02:10:41;;;;;;;10.37;9.33;;;;;;;;;;5054931;28;20900;-76
2023/09/17 02:13:10;;;;;;;10.87;9.87;;;;;;;;;;5053884;28;20428;-76
2023/09/17 02:15:35;;;;;;;11.07;9.97;;;;;;;;;;5034872;28;20778;-78
2023/09/17 02:18:03;;;;;;;11.83;10.13;;;;;;;;;;5035154;28;20475;-76
2023/09/17 02:20:32;;;;;;;9.57;8.70;;;;;;;;;;5035276;28;20202;-76
2023/09/17 02:22:58;;;;;;;10.87;9.00;;;;;;;;;;5034740;28;20773;-80
2023/09/17 02:25:24;;;;;;;12.43;9.10;;;;;;;;;;5035140;28;20406;-76
2023/09/17 02:27:50;;;;;;;8.70;7.90;;;;;;;;;;5033213;28;20480;-77
2023/09/17 02:30:16;;;;;;;10.00;9.10;;;;;;;;;;5034880;28;20488;-85
2023/09/17 02:32:41;;;;;;;9.50;8.63;;;;;;;;;;5034795;28;20409;-76
2023/09/17 02:35:08;;;;;;;8.67;7.80;;;;;;;;;;5034837;28;20182;-76
2023/09/17 02:37:34;;;;;;;9.70;8.80;;;;;;;;;;5034709;28;20171;-76
2023/09/17 02:40:00;;;;;;;10.03;8.67;;;;;;;;;;5034400;28;20417;-76
2023/09/17 02:42:26;;;;;;;9.90;8.90;;;;;;;;;;5034641;28;20412;-76
2023/09/17 02:44:52;;;;;;;11.20;10.10;;;;;;;;;;5033293;28;20927;-76
2023/09/17 02:47:18;;;;;;;9.33;8.20;;;;;;;;;;5035070;28;20410;-86
2023/09/17 02:49:44;;;;;;;8.80;7.50;;;;;;;;;;5034525;28;20463;-77
2023/09/17 02:52:10;;;;;;;10.63;8.20;;;;;;;;;;5034662;28;20554;-82
2023/09/17 02:54:36;;;;;;;8.50;7.07;;;;;;;;;;5034256;28;20412;-76
2023/09/17 02:57:02;;;;;;;10.90;9.90;;;;;;;;;;5034384;28;20192;-77
2023/09/17 02:59:28;;;;;;;8.40;7.70;;;;;;;;;;5034460;28;20167;-86
2023/09/17 03:01:54;;;;;;;8.57;7.77;;;;;;;;;;5034126;28;20421;-76
2023/09/17 03:04:20;;;;;;;9.07;8.27;;;;;;;;;;5034289;28;20409;-76
2023/09/17 03:06:52;;;;;;;8.87;8.03;;;;;;;;;;5034213;28;20409;-76
2023/09/17 03:09:18;;;;;;;9.10;8.20;;;;;;;;;;5033604;28;20484;-76
2023/09/17 03:11:44;;;;;;;8.20;7.50;;;;;;;;;;5034016;28;20413;-76
2023/09/17 03:14:10;;;;;;;8.57;7.77;;;;;;;;;;5034027;28;20909;-76
2023/09/17 03:16:36;;;;;;;8.67;7.33;;;;;;;;;;5034046;28;20512;-76
2023/09/17 03:19:02;;;;;;;9.33;8.37;;;;;;;;;;5034010;28;20798;-82
2023/09/17 03:21:28;;;;;;;9.10;8.17;;;;;;;;;;5033453;28;20416;-76
2023/09/17 03:23:54;;;;;;;8.87;7.97;;;;;;;;;;5033514;28;20413;-76
2023/09/17 03:26:22;;;;;;;9.13;8.13;;;;;;;;;;5033780;28;20541;-77
2023/09/17 03:28:47;;;;;;;7.93;7.13;;;;;;;;;;5033629;28;20448;-87
2023/09/17 03:31:13;;;;;;;8.10;7.40;;;;;;;;;;5033976;28;20431;-87
2023/09/17 03:33:39;;;;;;;8.50;7.50;;;;;;;;;;5033816;28;20875;-76
2023/09/17 03:36:05;;;;;;;8.20;7.43;;;;;;;;;;5032630;28;20175;-84
2023/09/17 03:38:33;;;;;;;9.47;8.67;;;;;;;;;;5033276;28;20412;-83
2023/09/17 03:41:00;;;;;;;9.73;8.33;;;;;;;;;;5033350;28;20421;-76
2023/09/17 03:43:29;;;;;;;8.50;7.73;;;;;;;;;;5033557;28;20439;-86
2023/09/17 03:45:56;;;;;;;10.03;6.37;;;;;;;;;;5033448;28;20425;-76
2023/09/17 03:48:25;;;;;;;7.10;6.43;;;;;;;;;;5033371;28;20478;-75
2023/09/17 03:50:51;;;;;;;7.33;6.63;;;;;;;;;;5033282;28;20476;-77
2023/09/17 03:53:17;;;;;;;7.43;6.73;;;;;;;;;;5032764;28;20409;-87
2023/09/17 03:55:44;;;;;;;8.07;7.10;;;;;;;;;;5033037;28;20174;-86
2023/09/17 03:58:10;;;;;;;8.13;7.43;;;;;;;;;;5033322;28;20450;-76
2023/09/17 04:00:36;;;;;;;7.63;6.83;;;;;;;;;;5033601;28;20922;-88
2023/09/17 04:03:04;;;;;;;8.67;7.87;;;;;;;;;;5033709;28;20421;-89
2023/09/17 04:05:30;;;;;;;9.07;6.70;;;;;;;;;;5033632;28;20929;-88
2023/09/17 04:07:56;;;;;;;7.67;6.97;;;;;;;;;;5039848;28;20428;-85
2023/09/17 04:10:22;;;;;;;6.83;6.20;;;;;;;;;;5053491;28;20225;-87
2023/09/17 04:12:48;;;;;;;8.23;7.40;;;;;;;;;;5053345;28;20400;-77
2023/09/17 04:15:19;;;;;;;7.20;6.60;;;;;;;;;;5053773;28;20410;-87
2023/09/17 04:17:46;;;;;;;7.10;6.40;;;;;;;;;;5053352;28;20396;-88
2023/09/17 04:20:18;;;;;;;7.63;6.03;;;;;;;;;;5053401;28;20427;-76
2023/09/17 04:22:44;;;;;;;7.73;6.97;;;;;;;;;;5047477;28;20423;-77
2023/09/17 04:25:11;;;;;;;6.90;6.17;;;;;;;;;;5033096;28;20928;-76
2023/09/17 04:27:38;;;;;;;8.13;7.33;;;;;;;;;;5032277;28;20758;-76
2023/09/17 04:30:05;;;;;;;7.90;7.17;;;;;;;;;;5047639;28;21083;-77
2023/09/17 04:32:37;;;;;;;8.57;6.67;;;;;;;;;;5033020;28;20402;-76
2023/09/17 04:35:07;;;;;;;7.10;6.40;;;;;;;;;;5032954;28;20445;-76
2023/09/17 04:37:34;;;;;;;7.00;6.30;;;;;;;;;;5032607;28;20409;-76
2023/09/17 04:40:00;;;;;;;6.97;6.30;;;;;;;;;;5034853;28;20413;-75
2023/09/17 04:42:26;;;;;;;8.77;7.93;;;;;;;;;;5036892;28;20901;-75
2023/09/17 04:44:52;;;;;;;8.60;7.60;;;;;;;;;;5036920;28;20421;-75
2023/09/17 04:47:18;;;;;;;9.40;6.67;;;;;;;;;;5036828;28;20912;-75
2023/09/17 04:49:44;;;;;;;7.63;6.90;;;;;;;;;;5036873;28;20820;-75
2023/09/17 04:52:10;;;;;;;7.50;6.70;;;;;;;;;;5036708;28;20411;-75
2023/09/17 04:54:37;;;;;;;8.23;7.10;;;;;;;;;;5036092;28;20180;-75
2023/09/17 04:57:04;;;;;;;8.97;8.17;;;;;;;;;;5036637;28;20216;-75
2023/09/17 04:59:30;;;;;;;7.63;6.87;;;;;;;;;;5036694;28;20420;-75
2023/09/17 05:01:59;;;;;;;8.50;7.40;;;;;;;;;;5036527;28;20418;-75
2023/09/17 05:04:26;;;;;;;8.90;8.00;;;;;;;;;;5036507;28;20543;-75
2023/09/17 05:06:52;;;;;;;9.20;8.30;;;;;;;;;;5036502;28;20398;-75
2023/09/17 05:09:22;;;;;;;9.37;7.50;;;;;;;;;;5034917;28;20478;-75
2023/09/17 05:11:48;;;;;;;8.27;7.47;;;;;;;;;;5036297;28;20467;-76
2023/09/17 05:14:14;;;;;;;9.77;8.77;;;;;;;;;;5035090;28;20421;-76
2023/09/17 05:16:40;;;;;;;9.47;8.57;;;;;;;;;;5036197;28;20987;-75
2023/09/17 05:19:06;;;;;;;9.30;8.40;;;;;;;;;;5036232;28;20397;-75
2023/09/17 05:21:32;;;;;;;7.30;6.60;;;;;;;;;;5036248;28;20417;-75
2023/09/17 05:23:58;;;;;;;8.77;7.87;;;;;;;;;;5035735;28;20504;-75
2023/09/17 05:26:24;;;;;;;8.37;7.67;;;;;;;;;;5036142;28;20576;-75
2023/09/17 05:28:50;;;;;;;8.70;7.77;;;;;;;;;;5051381;28;20228;-75
2023/09/17 05:31:16;;;;;;;8.87;8.13;;;;;;;;;;5036075;28;20413;-75
2023/09/17 05:33:42;;;;;;;8.30;7.50;;;;;;;;;;5035958;28;20446;-80
2023/09/17 05:36:07;;;;;;;8.73;7.83;;;;;;;;;;5036014;28;20650;-78
2023/09/17 05:38:33;;;;;;;9.20;8.50;;;;;;;;;;5035592;28;20261;-75
2023/09/17 05:41:01;;;;;;;9.40;7.90;;;;;;;;;;5051493;28;20195;-77
2023/09/17 05:43:27;;;;;;;7.47;6.77;;;;;;;;;;5035980;28;20405;-76
2023/09/17 05:45:56;;;;;;;8.73;7.80;;;;;;;;;;5036096;28;20409;-78
2023/09/17 05:48:23;;;;;;;7.53;6.87;;;;;;;;;;5040260;28;20416;-76
2023/09/17 05:50:50;;;;;;;8.20;7.40;;;;;;;;;;5053662;28;20472;-76
2023/09/17 05:53:15;;;;;;;9.13;8.23;;;;;;;;;;5052044;28;20404;-76
2023/09/17 05:55:41;;;;;;;9.93;8.20;;;;;;;;;;5053702;28;20421;-76
2023/09/17 05:58:07;;;;;;;9.67;8.87;;;;;;;;;;5054991;28;20876;-87
2023/09/17 06:00:33;;;;;;;10.10;9.20;;;;;;;;;;5054720;28;20185;-76
2023/09/17 06:02:59;;;;;;;8.87;8.07;;;;;;;;;;5054329;28;20645;-78
2023/09/17 06:05:25;;;;;;;9.13;8.33;;;;;;;;;;5070826;28;20957;-76
2023/09/17 06:07:52;;;;;;;7.97;7.27;;;;;;;;;;5054851;28;20169;-76
2023/09/17 06:10:18;;;;;;;8.80;8.10;;;;;;;;;;5055033;28;20484;-76
2023/09/17 06:12:44;;;;;;;8.90;8.17;;;;;;;;;;5055401;28;20503;-76
2023/09/17 06:15:10;;;;;;;6.27;5.77;;;;;;;;;;5055219;28;20500;-75
2023/09/17 06:17:36;;;;;;;7.60;6.90;;;;;;;;;;5054998;28;20421;-76
2023/09/17 06:20:02;;;;;;;8.30;7.60;;;;;;;;;;5055049;28;20416;-76
2023/09/17 06:22:28;;;;;;;7.20;6.60;;;;;;;;;;5054672;28;20923;-76
2023/09/17 06:24:54;;;;;;;8.53;7.77;;;;;;;;;;5053405;28;20474;-76
2023/09/17 06:27:21;;;;;;;8.50;7.77;;;;;;;;;;5054146;28;20258;-77
2023/09/17 06:29:46;;;;;;;7.33;6.73;;;;;;;;;;5054774;28;20476;-76
2023/09/17 06:32:12;;;;;;;8.87;7.40;;;;;;;;;;5054724;28;20432;-77
2023/09/17 06:34:39;;;;;;;7.00;6.50;;;;;;;;;;5053949;28;20195;-77
2023/09/17 06:37:05;;;;;;;7.30;6.70;;;;;;;;;;5054295;28;20414;-76
2023/09/17 06:39:31;;;;;;;7.13;6.43;;;;;;;;;;5054349;28;20957;-77
2023/09/17 06:41:57;;;;;;;8.40;6.70;;;;;;;;;;5054574;28;20182;-77
2023/09/17 06:44:23;;;;;;;6.37;5.77;;;;;;;;;;5054541;28;20413;-78
2023/09/17 06:46:49;;;;;;;6.53;5.93;;;;;;;;;;5054343;28;20807;-79
2023/09/17 06:49:15;;;;;;;7.23;6.60;;;;;;;;;;5054569;28;20457;-77
2023/09/17 06:51:41;;;;;;;6.57;5.97;;;;;;;;;;5054385;28;20417;-78
2023/09/17 06:54:07;;;;;;;6.60;6.00;;;;;;;;;;5054022;28;20409;-78
2023/09/17 06:56:39;;;;;;;7.70;6.50;;;;;;;;;;5053156;28;20181;-78
2023/09/17 06:59:05;;;;;;;7.60;6.90;;;;;;;;;;5054298;28;20411;-78
2023/09/17 07:01:31;;;;;;;6.17;5.67;;;;;;;;;;5053698;28;20456;-77
2023/09/17 07:03:57;;;;;;;7.00;6.40;;;;;;;;;;5054022;28;20265;-78
2023/09/17 07:06:27;;;;;;;8.70;6.67;;;;;;;;;;5052439;28;20790;-79
2023/09/17 07:08:55;;;;;;;6.70;6.00;;;;;;;;;;5052853;28;20172;-78
2023/09/17 07:11:21;;;;;;;5.97;5.40;;;;;;;;;;5053351;28;20916;-78
2023/09/17 07:13:47;;;;;;;6.43;5.80;;;;;;;;;;5053647;28;20408;-77
2023/09/17 07:16:14;;;;;;;6.90;5.80;;;;;;;;;;5053471;28;20422;-78
2023/09/17 07:18:39;;;;;;;6.30;5.70;;;;;;;;;;5051514;28;20264;-80
2023/09/17 07:21:05;;;;;;;6.73;6.10;;;;;;;;;;5052087;28;21008;-78
2023/09/17 07:23:32;;;;;;;7.03;5.57;;;;;;;;;;5053066;28;20181;-85
2023/09/17 07:25:58;;;;;;;6.80;6.20;;;;;;;;;;5052024;28;20423;-83
2023/09/17 07:28:24;;;;;;;7.63;6.93;;;;;;;;;;5053286;28;20939;-85
2023/09/17 07:30:54;;;;;;;6.73;6.03;;;;;;;;;;5052569;28;20486;-79
2023/09/17 07:33:20;;;;;;;6.90;6.20;;;;;;;;;;5053136;28;20271;-75
2023/09/17 07:35:46;;;;;;;6.60;6.10;;;;;;;;;;5053189;28;20433;-75
2023/09/17 07:38:13;;;;;;;6.90;5.83;;;;;;;;;;5052761;28;20515;-79
2023/09/17 07:40:39;;;;;;;7.00;6.30;;;;;;;;;;5048171;28;20180;-77
2023/09/17 07:43:06;;;;;;;7.17;6.57;;;;;;;;;;5052553;28;20418;-77
2023/09/17 07:45:37;;;;;;;8.37;6.87;;;;;;;;;;5052582;28;20226;-77
2023/09/17 07:48:03;;;;;;;7.20;6.60;;;;;;;;;;5050070;28;20451;-76
2023/09/17 07:50:29;;;;;;;7.87;5.17;;;;;;;;;;5052431;28;20474;-76
2023/09/17 07:52:55;;;;;;;8.30;6.73;;;;;;;;;;5050879;28;20413;-76
2023/09/17 07:55:22;;;;;;;7.37;6.77;;;;;;;;;;5049765;28;20417;-77
2023/09/17 07:57:48;;;;;;;8.20;7.40;;;;;;;;;;5053015;28;20178;-76
2023/09/17 08:00:15;;;;;;;7.80;7.20;;;;;;;;;;5053256;28;20413;-76
2023/09/17 08:02:43;;;;;;;10.60;9.70;;;;;;;;;;5053087;28;20534;-76
2023/09/17 08:05:09;;;;;;;8.10;7.03;;;;;;;;;;5053414;28;20451;-76
2023/09/17 08:07:40;;;;;;;9.10;8.20;;;;;;;;;;5052868;28;20408;-76
2023/09/17 08:10:09;;;;;;;8.07;7.40;;;;;;;;;;5052763;28;20484;-76
2023/09/17 08:12:38;;;;;;;8.53;7.77;;;;;;;;;;5052275;28;20415;-77
2023/09/17 08:15:04;;;;;;;8.70;7.30;;;;;;;;;;5048947;28;20416;-76
2023/09/17 08:17:30;;;;;;;7.37;6.77;;;;;;;;;;5052463;28;20410;-76
2023/09/17 08:19:58;;;;;;;8.23;6.53;;;;;;;;;;5052237;28;20543;-76
2023/09/17 08:22:27;;;;;;;7.17;6.47;;;;;;;;;;5052148;28;20417;-80
2023/09/17 08:24:52;;;;;;;6.27;5.53;;;;;;;;;;5052784;28;20421;-76
2023/09/17 08:27:19;;;;;;;7.17;5.93;;;;;;;;;;5052870;28;20443;-77
2023/09/17 08:29:45;;;;;;;7.70;6.13;;;;;;;;;;5052747;28;20672;-76
2023/09/17 08:32:12;;;;;;;5.97;5.37;;;;;;;;;;5051441;28;20417;-76
2023/09/17 08:34:37;;;;;;;7.73;6.10;;;;;;;;;;5052842;28;20185;-79
2023/09/17 08:37:04;;;;;;;5.80;5.30;;;;;;;;;;5052402;28;20406;-76
2023/09/17 08:39:31;;;;;;;8.60;6.07;;;;;;;;;;5052748;28;20580;-76
2023/09/17 08:41:59;;;;;;;7.00;6.40;;;;;;;;;;5052758;28;20407;-76
2023/09/17 08:44:25;;;;;;;6.50;5.90;;;;;;;;;;5047095;28;20439;-77
2023/09/17 08:46:55;;;;;;;5.30;4.90;;;;;;;;;;5043592;28;20418;-77
2023/09/17 08:49:21;;;;;;;6.50;6.00;;;;;;;;;;5057650;28;20474;-76
2023/09/17 08:51:53;;;;;;;6.77;6.07;;;;;;;;;;5036259;28;20508;-75
2023/09/17 08:54:26;;;;;;;7.33;6.67;;;;;;;;;;5048076;28;20430;-75
2023/09/17 08:56:53;;;;;;;6.43;5.80;;;;;;;;;;5047548;28;20509;-78
2023/09/17 08:59:29;;;;;;;6.33;5.83;;;;;;;;;;5047713;28;20430;-76
2023/09/17 09:01:56;;;;;;;5.87;5.37;;;;;;;;;;5050619;28;20439;-77
2023/09/17 09:04:22;;;;;;;5.40;4.90;;;;;;;;;;5050917;28;20411;-75
2023/09/17 09:06:49;;;;;;;6.83;6.17;;;;;;;;;;5047544;28;20404;-78
2023/09/17 09:09:16;;;;;;;6.57;5.93;;;;;;;;;;5050118;28;21189;-78
2023/09/17 09:11:42;;;;;;;5.80;5.30;;;;;;;;;;5049942;28;20463;-79
2023/09/17 09:14:08;;;;;;;6.33;5.80;;;;;;;;;;5050526;28;20920;-78
2023/09/17 09:16:37;;;;;;;5.90;5.30;;;;;;;;;;5050334;28;21031;-81
2023/09/17 09:19:03;;;;;;;5.47;4.97;;;;;;;;;;5050724;28;20417;-80
2023/09/17 09:21:29;;;;;;;5.90;5.40;;;;;;;;;;5051194;28;20420;-78
2023/09/17 09:23:58;;;;;;;4.97;4.57;;;;;;;;;;5050001;28;20822;-80
2023/09/17 09:26:35;;;;;;;5.13;4.73;;;;;;;;;;5051644;28;20423;-78
2023/09/17 09:29:01;;;;;;;5.70;5.20;;;;;;;;;;5054271;28;20416;-78
2023/09/17 09:31:29;;;;;;;5.90;5.40;;;;;;;;;;5054340;28;20421;-77
2023/09/17 09:33:56;;;;;;;5.60;5.07;;;;;;;;;;5054135;28;20561;-78
2023/09/17 09:36:22;;;;;;;6.03;5.43;;;;;;;;;;5049678;28;20405;-79
2023/09/17 09:38:49;;;;;;;6.63;5.77;;;;;;;;;;5053668;28;20920;-78
2023/09/17 09:41:15;;;;;;;5.50;5.10;;;;;;;;;;5054073;28;20478;-80
2023/09/17 09:43:43;;;;;;;5.83;5.33;;;;;;;;;;5052188;28;20432;-78
2023/09/17 09:46:09;;;;;;;7.50;6.20;;;;;;;;;;5053970;28;20261;-78
2023/09/17 09:48:38;;;;;;;6.10;5.23;;;;;;;;;;5054837;28;20523;-82
2023/09/17 09:51:04;;;;;;;5.70;5.10;;;;;;;;;;5054723;28;21017;-81
2023/09/17 09:53:30;;;;;;;5.20;4.70;;;;;;;;;;5054374;28;20404;-87
2023/09/17 09:55:56;;;;;;;4.47;3.73;;;;;;;;;;5054702;28;20418;-83
2023/09/17 09:58:23;;;;;;;5.20;4.70;;;;;;;;;;5055131;28;20408;-86
2023/09/17 10:00:49;;;;;;;4.73;4.30;;;;;;;;;;5054107;28;20439;-81
2023/09/17 10:03:17;;;;;;;4.80;4.17;;;;;;;;;;5055512;28;20920;-81
2023/09/17 10:05:44;;;;;;;4.57;4.13;;;;;;;;;;5055147;28;20173;-84
2023/09/17 10:08:11;;;;;;;4.20;3.80;;;;;;;;;;5053609;28;20428;-80
2023/09/17 10:10:37;;;;;;;5.60;5.10;;;;;;;;;;5054885;28;20833;-81
2023/09/17 10:13:06;;;;;;;5.77;4.47;;;;;;;;;;5055190;28;20416;-84
2023/09/17 10:15:36;;;;;;;5.10;4.57;;;;;;;;;;5054440;28;20744;-81
2023/09/17 10:18:03;;;;;;;3.73;3.43;;;;;;;;;;5054851;28;20441;-84
2023/09/17 10:20:29;;;;;;;4.07;3.40;;;;;;;;;;5052491;28;20767;-89
2023/09/17 10:22:56;;;;;;;4.13;3.73;;;;;;;;;;5054978;28;20909;-82
2023/09/17 10:25:22;;;;;;;4.90;4.13;;;;;;;;;;5055101;28;20776;-82
2023/09/17 10:27:49;;;;;;;5.17;2.80;;;;;;;;;;5053116;28;20428;-83
2023/09/17 10:30:16;;;;;;;4.43;3.97;;;;;;;;;;5055111;28;20980;-83
2023/09/17 10:32:42;;;;;;;5.23;4.00;;;;;;;;;;5054653;28;20423;-84
2023/09/17 10:35:09;;;;;;;4.27;3.97;;;;;;;;;;5054377;28;20442;-79
2023/09/17 10:37:35;;;;;;;4.23;3.90;;;;;;;;;;5053495;28;20786;-82
2023/09/17 10:40:08;;;;;;;5.70;4.43;;;;;;;;;;5054689;28;20428;-82
2023/09/17 10:42:34;;;;;;;4.07;3.73;;;;;;;;;;5054675;28;20408;-81
2023/09/17 10:45:04;;;;;;;7.10;5.30;;;;;;;;;;5054144;28;20489;-86
2023/09/17 10:47:33;;;;;;;4.23;3.80;;;;;;;;;;5053313;28;20927;-87
2023/09/17 10:49:59;;;;;;;4.90;4.40;;;;;;;;;;5068104;28;20956;-87
2023/09/17 10:52:26;;;;;;;4.30;3.80;;;;;;;;;;5053752;28;20490;-87
2023/09/17 10:54:52;;;;;;;5.77;4.43;;;;;;;;;;5050866;28;20665;-93
2023/09/17 10:57:22;;;;;;;3.90;3.37;;;;;;;;;;5069875;28;20504;-79
2023/09/17 10:59:48;;;;;;;4.40;4.00;;;;;;;;;;5054540;28;20424;-88
2023/09/17 11:02:15;;;;;;;4.33;3.40;;;;;;;;;;5054608;28;20473;-86
2023/09/17 11:04:41;;;;;;;4.00;3.70;;;;;;;;;;5054400;28;20416;-87
2023/09/17 11:07:08;;;;;;;4.30;3.90;;;;;;;;;;5054568;28;20423;-90
2023/09/17 11:09:34;;;;;;;4.27;3.60;;;;;;;;;;5054271;28;20484;-85
2023/09/17 11:12:00;;;;;;;5.10;3.87;;;;;;;;;;5054148;28;20408;-79
2023/09/17 11:14:26;;;;;;;4.17;3.87;;;;;;;;;;5054293;28;20408;-84
2023/09/17 11:16:52;;;;;;;4.80;3.33;;;;;;;;;;5054136;28;20508;-83
2023/09/17 11:19:21;;;;;;;3.83;3.43;;;;;;;;;;5054018;28;20519;-84
2023/09/17 11:21:48;;;;;;;3.50;3.20;;;;;;;;;;5053916;28;20207;-80
2023/09/17 11:24:17;;;;;;;4.37;4.03;;;;;;;;;;5053896;28;20420;-80
2023/09/17 11:26:45;;;;;;;3.83;3.50;;;;;;;;;;5053656;28;20777;-80
2023/09/17 11:29:11;;;;;;;4.00;3.60;;;;;;;;;;5053708;28;20504;-80
2023/09/17 11:31:57;;;;;;;4.10;3.80;;;;;;;;;;5069195;28;20442;-83
2023/09/17 11:34:23;;;;;;;3.37;3.10;;;;;;;;;;5049778;28;20412;-80
2023/09/17 11:36:50;;;;;;;3.53;3.33;;;;;;;;;;5053235;28;20474;-79
2023/09/17 11:39:20;;;;;;;3.40;3.10;;;;;;;;;;5068977;28;20420;-79
2023/09/17 11:41:48;;;;;;;5.87;3.90;;;;;;;;;;5053472;28;20412;-81
2023/09/17 11:44:15;;;;;;;3.97;3.27;;;;;;;;;;5053384;28;20770;-89
2023/09/17 11:46:42;;;;;;;3.43;3.13;;;;;;;;;;5050134;28;20473;-81
2023/09/17 11:49:08;;;;;;;3.10;2.90;;;;;;;;;;5053175;28;20408;-80
2023/09/17 11:51:34;;;;;;;4.13;3.53;;;;;;;;;;5053028;28;20472;-81
2023/09/17 11:54:05;;;;;;;3.63;3.10;;;;;;;;;;5052776;28;20247;-78
2023/09/17 11:56:35;;;;;;;5.83;3.57;;;;;;;;;;5052080;28;20899;-80
2023/09/17 11:59:03;;;;;;;4.80;3.47;;;;;;;;;;5053181;28;20408;-85
2023/09/17 12:01:30;;;;;;;3.50;3.20;;;;;;;;;;5053368;28;20442;-92
2023/09/17 12:03:57;;;;;;;3.90;3.67;;;;;;;;;;5053233;28;20569;-82
2023/09/17 12:06:24;;;;;;;3.87;3.07;;;;;;;;;;5051356;28;20432;-81
2023/09/17 12:08:50;;;;;;;4.73;3.80;;;;;;;;;;5053039;28;20416;-80
2023/09/17 12:11:22;;;;;;;4.80;4.10;;;;;;;;;;5052845;28;20486;-81
2023/09/17 12:13:53;;;;;;;3.60;3.30;;;;;;;;;;5053274;28;20360;-85
2023/09/17 12:16:19;;;;;;;3.57;3.27;;;;;;;;;;5053188;28;20416;-82
2023/09/17 12:18:46;;;;;;;3.63;3.30;;;;;;;;;;5052301;28;20409;-81
2023/09/17 12:21:12;;;;;;;4.30;4.00;;;;;;;;;;5052001;28;20419;-79
2023/09/17 12:24:06;;;;;;;4.50;4.10;;;;;;;;;;5052186;28;20507;-79
2023/09/17 12:26:44;;;;;;;3.30;3.10;;;;;;;;;;5048641;28;20204;-79
2023/09/17 12:29:10;;;;;;;4.20;3.47;;;;;;;;;;5052527;28;20427;-79
2023/09/17 12:31:36;;;;;;;3.30;3.00;;;;;;;;;;5052579;28;20451;-79
2023/09/17 12:34:03;;;;;;;3.50;3.20;;;;;;;;;;5052926;28;20443;-78
2023/09/17 12:36:30;;;;;;;3.90;3.50;;;;;;;;;;5051108;28;21070;-85
2023/09/17 12:38:56;;;;;;;4.30;3.87;;;;;;;;;;5052641;28;20491;-81
2023/09/17 12:41:22;;;;;;;4.07;3.67;;;;;;;;;;5052431;28;20874;-81
2023/09/17 12:43:48;;;;;;;3.87;3.40;;;;;;;;;;5048663;28;20474;-79
2023/09/17 12:46:14;;;;;;;3.80;3.40;;;;;;;;;;5032891;28;20308;-81
2023/09/17 12:48:41;;;;;;;4.70;4.30;;;;;;;;;;5032740;28;20901;-82
2023/09/17 12:51:06;;;;;;;4.70;4.30;;;;;;;;;;5032128;28;20473;-78
2023/09/17 12:53:33;;;;;;;3.93;3.53;;;;;;;;;;5031914;28;20420;-79
2023/09/17 12:56:00;;;;;;;4.20;3.70;;;;;;;;;;5032205;28;20409;-80
2023/09/17 12:58:26;;;;;;;3.60;3.30;;;;;;;;;;5032833;28;20397;-79
2023/09/17 13:00:52;;;;;;;3.80;2.97;;;;;;;;;;5034521;28;20424;-79
2023/09/17 13:03:18;;;;;;;4.43;3.93;;;;;;;;;;5035336;28;20897;-78
2023/09/17 13:05:45;;;;;;;6.50;4.00;;;;;;;;;;5036880;28;20431;-80
2023/09/17 13:08:11;;;;;;;4.17;3.77;;;;;;;;;;5035753;28;20455;-78
2023/09/17 13:10:37;;;;;;;5.30;4.10;;;;;;;;;;5036250;28;20997;-82
2023/09/17 13:13:07;;;;;;;4.90;3.93;;;;;;;;;;5036559;28;20416;-79
2023/09/17 13:15:33;;;;;;;5.60;3.80;;;;;;;;;;5036498;28;20408;-81
2023/09/17 13:17:59;;;;;;;4.40;3.60;;;;;;;;;;5036634;28;20913;-79
2023/09/17 13:20:26;;;;;;;5.60;4.13;;;;;;;;;;5036450;28;20417;-85
2023/09/17 13:22:52;;;;;;;4.90;4.00;;;;;;;;;;5036567;28;20401;-90
2023/09/17 13:25:19;;;;;;;4.43;3.87;;;;;;;;;;5036793;28;20830;-85
2023/09/17 13:27:45;;;;;;;4.60;3.40;;;;;;;;;;5035624;28;20419;-89
2023/09/17 13:30:11;;;;;;;7.73;4.50;;;;;;;;;;5037556;28;20838;-83
2023/09/17 13:32:37;;;;;;;5.47;4.97;;;;;;;;;;5044588;28;20420;-89
2023/09/17 13:35:10;;;;;;;5.77;5.27;;;;;;;;;;5036136;28;20504;-85
2023/09/17 13:37:39;;;;;;;5.30;4.80;;;;;;;;;;5036097;28;20425;-78
2023/09/17 13:40:06;;;;;;;6.13;5.07;;;;;;;;;;5035985;28;20408;-87
2023/09/17 13:42:32;;;;;;;5.30;4.70;;;;;;;;;;5035660;28;20733;-90
2023/09/17 13:44:57;;;;;;;4.60;4.20;;;;;;;;;;5035792;28;20423;-91
2023/09/17 13:47:24;;;;;;;5.40;4.30;;;;;;;;;;5035651;28;20804;-91
2023/09/17 13:49:49;;;;;;;4.03;3.63;;;;;;;;;;5043620;28;20563;-81
2023/09/17 13:52:15;;;;;;;5.20;4.70;;;;;;;;;;5055316;28;20947;-80
2023/09/17 13:54:45;;;;;;;6.57;4.57;;;;;;;;;;5055560;28;20180;-90
2023/09/17 13:57:12;;;;;;;4.53;4.13;;;;;;;;;;5055512;28;20193;-82
2023/09/17 13:59:37;;;;;;;8.10;4.40;;;;;;;;;;5055332;28;20419;-86
2023/09/17 14:02:04;;;;;;;6.07;4.50;;;;;;;;;;5056174;28;20920;-83
2023/09/17 14:04:29;;;;;;;5.07;4.53;;;;;;;;;;5055560;28;20626;-89
2023/09/17 14:06:55;;;;;;;5.90;4.30;;;;;;;;;;5055264;28;20419;-80
2023/09/17 14:09:22;;;;;;;4.77;4.20;;;;;;;;;;5053660;28;20221;-89
2023/09/17 14:11:51;;;;;;;3.60;3.30;;;;;;;;;;5053110;28;20452;-84
2023/09/17 14:14:16;;;;;;;5.10;4.67;;;;;;;;;;5055659;28;20423;-90
2023/09/17 14:16:44;;;;;;;3.73;3.43;;;;;;;;;;5055654;28;20423;-87
2023/09/17 14:19:14;;;;;;;5.60;5.10;;;;;;;;;;5055683;28;20209;-86
2023/09/17 14:21:40;;;;;;;4.77;4.37;;;;;;;;;;5054969;28;20404;-91
2023/09/17 14:24:06;;;;;;;5.27;4.87;;;;;;;;;;5055064;28;20485;-80
2023/09/17 14:26:32;;;;;;;6.03;4.23;;;;;;;;;;5054908;28;20492;-79
2023/09/17 14:28:58;;;;;;;5.20;4.17;;;;;;;;;;5055146;28;20499;-86
2023/09/17 14:31:24;;;;;;;7.90;4.47;;;;;;;;;;5054822;28;20567;-78
2023/09/17 14:33:50;;;;;;;4.20;3.40;;;;;;;;;;5053015;28;20276;-88
2023/09/17 14:36:16;;;;;;;4.57;4.17;;;;;;;;;;5035309;28;20769;-79
2023/09/17 14:38:42;;;;;;;6.17;4.37;;;;;;;;;;5034932;28;20220;-80